createdAt,value
2018-09-13T00:01:32.891Z,16.77
2018-09-13T00:04:00.522Z,23.23
2018-09-13T00:06:28.133Z,17.93
2018-09-13T00:08:55.720Z,12.73
2018-09-13T00:11:23.307Z,30.13
2018-09-13T00:13:51.220Z,17.30
2018-09-13T00:16:18.823Z,14.60
2018-09-13T00:18:46.407Z,10.70
2018-09-13T00:21:14.030Z,11.20
2018-09-13T00:23:41.666Z,12.90
2018-09-13T00:26:09.224Z,11.83
2018-09-13T00:28:36.804Z,35.03
2018-09-13T00:31:04.483Z,11.60
2018-09-13T00:33:32.084Z,12.20
2018-09-13T00:35:59.810Z,38.57
2018-09-13T00:38:27.391Z,25.07
2018-09-13T00:40:54.996Z,13.27
2018-09-13T00:43:22.593Z,12.90
2018-09-13T00:45:50.202Z,20.77
2018-09-13T00:48:17.790Z,11.87
2018-09-13T00:50:45.404Z,11.20
2018-09-13T00:53:13.018Z,10.80
2018-09-13T00:55:40.620Z,20.63
2018-09-13T00:58:08.259Z,12.73
2018-09-13T01:00:35.854Z,11.47
2018-09-13T01:03:03.468Z,11.00
2018-09-13T01:05:31.074Z,13.30
2018-09-13T01:07:58.656Z,13.30
2018-09-13T01:10:26.256Z,27.33
2018-09-13T01:12:53.861Z,12.60
2018-09-13T01:15:21.439Z,14.60
2018-09-13T01:17:49.098Z,34.27
2018-09-13T01:20:16.731Z,13.57
2018-09-13T01:22:44.424Z,14.33
2018-09-13T01:25:12.010Z,26.47
2018-09-13T01:27:39.649Z,16.30
2018-09-13T01:30:07.301Z,15.93
2018-09-13T01:32:34.945Z,21.67
2018-09-13T01:35:02.600Z,21.57
2018-09-13T01:37:30.221Z,13.57
2018-09-13T01:39:57.875Z,26.73
2018-09-13T01:42:25.527Z,12.87
2018-09-13T01:44:53.168Z,19.83
2018-09-13T01:47:20.802Z,19.73
2018-09-13T01:49:48.396Z,12.13
2018-09-13T01:52:16.000Z,15.77
2018-09-13T01:54:43.617Z,13.80
2018-09-13T01:57:11.214Z,12.00
2018-09-13T01:59:38.851Z,11.60
2018-09-13T02:02:06.476Z,17.40
2018-09-13T02:04:34.045Z,20.20
2018-09-13T02:07:01.684Z,11.47
2018-09-13T02:09:29.329Z,11.23
2018-09-13T02:11:56.967Z,10.83
2018-09-13T02:14:24.531Z,11.40
2018-09-13T02:16:52.149Z,11.63
2018-09-13T02:19:19.757Z,12.90
2018-09-13T02:21:47.405Z,13.77
2018-09-13T02:24:15.008Z,12.17
2018-09-13T02:26:42.615Z,11.70
2018-09-13T02:29:10.209Z,11.40
2018-09-13T02:31:37.854Z,13.60
2018-09-13T02:34:05.471Z,13.10
2018-09-13T02:36:33.061Z,11.27
2018-09-13T02:39:00.655Z,13.67
2018-09-13T02:41:28.295Z,11.80
2018-09-13T02:43:55.884Z,12.90
2018-09-13T02:46:23.501Z,13.63
2018-09-13T02:48:51.092Z,12.00
2018-09-13T02:51:18.715Z,11.10
2018-09-13T02:53:46.332Z,12.40
2018-09-13T02:56:13.935Z,13.20
2018-09-13T02:58:41.555Z,12.73
2018-09-13T03:01:09.158Z,12.50
2018-09-13T03:03:36.846Z,14.27
2018-09-13T03:06:04.495Z,13.10
2018-09-13T03:08:32.072Z,13.83
2018-09-13T03:10:59.713Z,12.30
2018-09-13T03:13:27.317Z,13.00
2018-09-13T03:15:54.990Z,12.80
2018-09-13T03:18:22.605Z,13.50
2018-09-13T03:20:50.208Z,12.40
2018-09-13T03:23:17.804Z,11.57
2018-09-13T03:25:45.488Z,11.93
2018-09-13T03:28:13.191Z,13.50
2018-09-13T03:30:40.918Z,12.03
2018-09-13T03:33:08.611Z,12.10
2018-09-13T03:35:36.264Z,11.17
2018-09-13T03:38:03.968Z,13.07
2018-09-13T03:40:31.578Z,12.57
2018-09-13T03:42:59.183Z,12.23
2018-09-13T03:45:26.784Z,13.03
2018-09-13T03:47:54.419Z,13.93
2018-09-13T03:50:22.015Z,13.53
2018-09-13T03:52:49.604Z,12.00
2018-09-13T03:55:17.234Z,13.70
2018-09-13T03:57:44.835Z,11.90
2018-09-13T04:00:12.511Z,12.67
2018-09-13T04:02:40.109Z,12.30
2018-09-13T04:05:07.697Z,13.23
2018-09-13T04:07:35.285Z,13.73
2018-09-13T04:10:02.896Z,12.70
2018-09-13T04:12:30.500Z,13.30
2018-09-13T04:14:58.088Z,12.00
2018-09-13T04:17:25.702Z,12.77
2018-09-13T04:19:53.336Z,13.10
2018-09-13T04:22:20.960Z,13.23
2018-09-13T04:24:48.611Z,13.03
2018-09-13T04:27:16.236Z,13.13
2018-09-13T04:29:43.896Z,13.43
2018-09-13T04:32:11.521Z,13.50
2018-09-13T04:34:39.426Z,13.63
2018-09-13T04:37:07.319Z,13.80
2018-09-13T04:39:34.917Z,13.70
2018-09-13T04:42:02.534Z,13.50
2018-09-13T04:44:30.175Z,13.40
2018-09-13T04:46:57.826Z,13.57
2018-09-13T04:49:25.465Z,14.20
2018-09-13T04:51:53.153Z,12.30
2018-09-13T04:54:20.811Z,14.10
2018-09-13T04:56:48.486Z,12.70
2018-09-13T04:59:17.009Z,14.37
2018-09-13T05:01:44.624Z,13.63
2018-09-13T05:04:12.907Z,14.87
2018-09-13T05:06:40.843Z,13.83
2018-09-13T05:09:10.812Z,13.47
2018-09-13T05:11:38.423Z,16.90
2018-09-13T05:14:06.159Z,13.93
2018-09-13T05:16:33.769Z,12.90
2018-09-13T05:19:01.959Z,14.17
2018-09-13T05:21:29.826Z,12.00
2018-09-13T05:23:57.478Z,13.43
2018-09-13T05:26:25.085Z,14.90
2018-09-13T05:28:52.904Z,15.20
2018-09-13T05:31:20.516Z,13.70
2018-09-13T05:33:48.124Z,14.70
2018-09-13T05:36:15.761Z,15.30
2018-09-13T05:38:43.471Z,13.40
2018-09-13T05:41:11.057Z,14.90
2018-09-13T05:43:38.676Z,13.30
2018-09-13T05:46:06.273Z,13.87
2018-09-13T05:48:33.885Z,14.03
2018-09-13T05:51:01.548Z,14.37
2018-09-13T05:53:29.138Z,14.90
2018-09-13T05:55:56.732Z,14.60
2018-09-13T05:58:24.463Z,14.33
2018-09-13T06:00:52.087Z,15.57
2018-09-13T06:03:19.667Z,14.80
2018-09-13T06:05:47.374Z,13.90
2018-09-13T06:08:15.138Z,14.67
2018-09-13T06:10:42.832Z,15.17
2018-09-13T06:13:10.434Z,14.80
2018-09-13T06:15:38.012Z,14.23
2018-09-13T06:18:05.653Z,14.97
2018-09-13T06:20:33.277Z,16.50
2018-09-13T06:23:00.936Z,15.20
2018-09-13T06:25:28.561Z,15.17
2018-09-13T06:27:56.192Z,13.80
2018-09-13T06:30:23.782Z,15.40
2018-09-13T06:32:51.369Z,15.67
2018-09-13T06:35:18.996Z,15.63
2018-09-13T06:37:46.838Z,15.30
2018-09-13T06:40:14.506Z,15.70
2018-09-13T06:42:42.162Z,18.13
2018-09-13T06:45:09.947Z,17.77
2018-09-13T06:47:37.584Z,18.50
2018-09-13T06:50:05.253Z,16.00
2018-09-13T06:52:32.913Z,16.83
2018-09-13T06:55:00.508Z,15.47
2018-09-13T06:57:28.128Z,16.63
2018-09-13T06:59:55.728Z,16.60
2018-09-13T07:02:23.661Z,16.07
2018-09-13T07:04:51.310Z,16.00
2018-09-13T07:07:19.116Z,16.60
2018-09-13T07:09:46.738Z,14.83
2018-09-13T07:12:14.344Z,18.00
2018-09-13T07:14:42.020Z,16.00
2018-09-13T07:17:09.984Z,15.30
2018-09-13T07:19:37.927Z,13.10
2018-09-13T07:22:05.765Z,14.17
2018-09-13T07:24:33.361Z,14.57
2018-09-13T07:27:01.002Z,14.50
2018-09-13T07:29:28.613Z,15.57
2018-09-13T07:31:56.221Z,15.27
2018-09-13T07:34:24.080Z,15.40
2018-09-13T07:36:51.735Z,15.40
2018-09-13T07:39:19.421Z,14.40
2018-09-13T07:41:47.041Z,13.70
2018-09-13T07:44:14.794Z,14.40
2018-09-13T07:46:42.569Z,14.00
2018-09-13T07:52:09.418Z,13.57
2018-09-13T07:54:37.043Z,12.13
2018-09-13T07:57:04.698Z,12.43
2018-09-13T07:59:32.341Z,13.10
2018-09-13T08:01:59.942Z,13.60
2018-09-13T08:04:27.661Z,14.33
2018-09-13T08:06:55.260Z,13.37
2018-09-13T08:09:22.878Z,12.00
2018-09-13T08:11:50.655Z,11.30
2018-09-13T08:14:18.204Z,11.60
2018-09-13T08:16:48.231Z,12.13
2018-09-13T08:19:15.914Z,11.90
2018-09-13T08:21:43.591Z,12.80
2018-09-13T08:24:11.214Z,11.70
2018-09-13T08:26:38.846Z,12.23
2018-09-13T08:29:06.475Z,10.33
2018-09-13T08:31:34.106Z,10.93
2018-09-13T08:34:01.731Z,11.33
2018-09-13T08:36:29.381Z,11.50
2018-09-13T08:38:57.032Z,11.30
2018-09-13T08:41:24.661Z,11.50
2018-09-13T08:43:52.311Z,11.30
2018-09-13T08:46:20.761Z,10.63
2018-09-13T08:48:49.412Z,11.33
2018-09-13T08:51:17.012Z,11.17
2018-09-13T08:53:44.671Z,11.23
2018-09-13T08:56:12.260Z,10.37
2018-09-13T08:58:40.093Z,11.00
2018-09-13T09:01:07.726Z,8.70
2018-09-13T09:03:35.344Z,9.77
2018-09-13T09:06:03.021Z,9.47
2018-09-13T09:08:30.706Z,8.93
2018-09-13T09:10:58.390Z,8.67
2018-09-13T09:13:26.052Z,9.00
2018-09-13T09:15:53.652Z,9.73
2018-09-13T09:18:21.289Z,9.47
2018-09-13T09:20:48.903Z,8.90
2018-09-13T09:23:16.565Z,8.93
2018-09-13T09:25:44.191Z,8.37
2018-09-13T09:28:11.765Z,8.07
2018-09-13T09:30:39.402Z,7.57
2018-09-13T09:33:07.791Z,7.77
2018-09-13T09:35:35.419Z,8.50
2018-09-13T09:38:03.090Z,8.10
2018-09-13T09:40:30.764Z,8.30
2018-09-13T09:42:58.359Z,8.40
2018-09-13T09:45:25.985Z,8.67
2018-09-13T09:47:53.675Z,9.10
2018-09-13T09:50:21.281Z,7.67
2018-09-13T09:52:48.974Z,7.30
2018-09-13T09:55:20.841Z,7.83
2018-09-13T09:57:48.584Z,7.90
2018-09-13T10:00:16.265Z,8.20
2018-09-13T10:02:43.880Z,8.07
2018-09-13T10:05:11.462Z,7.60
2018-09-13T10:07:39.045Z,7.73
2018-09-13T10:10:06.856Z,8.47
2018-09-13T10:12:34.428Z,7.53
2018-09-13T10:15:07.282Z,8.10
2018-09-13T10:17:40.231Z,7.50
2018-09-13T10:20:13.224Z,8.23
2018-09-13T10:22:46.149Z,8.13
2018-09-13T10:25:19.288Z,7.50
2018-09-13T10:27:52.158Z,8.20
2018-09-13T10:30:25.271Z,8.43
2018-09-13T10:32:58.275Z,7.80
2018-09-13T10:35:31.129Z,8.00
2018-09-13T10:38:03.927Z,9.43
2018-09-13T10:40:36.745Z,8.47
2018-09-13T10:43:10.050Z,8.63
2018-09-13T10:45:42.929Z,8.47
2018-09-13T10:48:15.967Z,8.50
2018-09-13T10:50:48.725Z,7.87
2018-09-13T10:53:25.409Z,8.00
2018-09-13T10:55:53.048Z,8.63
2018-09-13T10:58:20.609Z,7.67
2018-09-13T11:00:48.222Z,7.53
2018-09-13T11:03:15.829Z,8.40
2018-09-13T11:05:43.477Z,10.00
2018-09-13T11:08:11.098Z,8.63
2018-09-13T11:10:38.797Z,9.00
2018-09-13T11:13:19.094Z,8.93
2018-09-13T11:15:46.907Z,8.70
2018-09-13T11:18:14.507Z,8.90
2018-09-13T11:20:42.211Z,8.93
2018-09-13T11:23:09.855Z,8.50
2018-09-13T11:25:37.628Z,9.53
2018-09-13T11:28:05.340Z,9.67
2018-09-13T11:30:33.021Z,8.00
2018-09-13T11:33:00.594Z,8.47
2018-09-13T11:35:28.261Z,8.30
2018-09-13T11:37:55.872Z,8.37
2018-09-13T11:40:23.562Z,8.00
2018-09-13T11:42:51.193Z,8.57
2018-09-13T11:45:19.031Z,7.90
2018-09-13T11:47:46.721Z,7.37
2018-09-13T11:50:14.375Z,7.90
2018-09-13T11:52:42.034Z,7.73
2018-09-13T11:55:09.649Z,7.83
2018-09-13T11:57:37.637Z,7.30
2018-09-13T12:00:05.043Z,7.90
2018-09-13T12:02:32.639Z,7.43
2018-09-13T12:05:00.749Z,7.33
2018-09-13T12:07:28.350Z,7.67
2018-09-13T12:09:55.967Z,7.00
2018-09-13T12:12:23.722Z,7.17
2018-09-13T12:14:51.324Z,7.30
2018-09-13T12:17:19.097Z,8.40
2018-09-13T12:19:46.708Z,7.40
2018-09-13T12:22:14.462Z,7.97
2018-09-13T12:24:42.071Z,8.20
2018-09-13T12:27:09.692Z,7.73
2018-09-13T12:29:37.289Z,8.23
2018-09-13T12:32:04.889Z,7.87
2018-09-13T12:34:32.546Z,8.40
2018-09-13T12:37:00.134Z,7.67
2018-09-13T12:39:27.782Z,7.87
2018-09-13T12:41:55.425Z,7.57
2018-09-13T12:44:23.137Z,7.90
2018-09-13T12:46:50.748Z,8.00
2018-09-13T12:49:18.727Z,8.23
2018-09-13T12:51:46.365Z,7.80
2018-09-13T12:54:13.941Z,7.17
2018-09-13T12:56:41.701Z,7.63
2018-09-13T12:59:09.183Z,7.40
2018-09-13T13:01:36.815Z,7.33
2018-09-13T13:04:04.451Z,7.57
2018-09-13T13:06:32.107Z,7.50
2018-09-13T13:08:59.747Z,7.60
2018-09-13T13:11:27.349Z,6.80
2018-09-13T13:13:54.950Z,6.87
2018-09-13T13:16:22.617Z,6.83
2018-09-13T13:18:50.162Z,7.27
2018-09-13T13:21:17.724Z,7.13
2018-09-13T13:23:45.338Z,8.30
2018-09-13T13:26:12.936Z,7.63
2018-09-13T13:28:40.495Z,7.13
2018-09-13T13:31:08.097Z,7.20
2018-09-13T13:33:35.661Z,7.67
2018-09-13T13:36:03.279Z,8.83
2018-09-13T13:38:30.917Z,8.03
2018-09-13T13:40:58.506Z,8.23
2018-09-13T13:43:26.123Z,7.17
2018-09-13T13:45:53.737Z,8.07
2018-09-13T13:48:21.443Z,8.10
2018-09-13T13:50:49.062Z,7.23
2018-09-13T13:53:16.667Z,7.20
2018-09-13T13:55:44.264Z,7.60
2018-09-13T13:58:11.869Z,8.60
2018-09-13T14:00:39.507Z,7.83
2018-09-13T14:03:07.196Z,7.63
2018-09-13T14:05:34.788Z,7.47
2018-09-13T14:08:02.425Z,8.03
2018-09-13T14:10:30.040Z,7.27
2018-09-13T14:12:57.703Z,7.13
2018-09-13T14:15:25.285Z,6.83
2018-09-13T14:17:52.868Z,8.20
2018-09-13T14:20:20.466Z,8.10
2018-09-13T14:22:48.175Z,7.33
2018-09-13T14:25:15.864Z,8.10
2018-09-13T14:27:43.507Z,8.17
2018-09-13T14:30:11.080Z,7.50
2018-09-13T14:32:38.656Z,8.30
2018-09-13T14:35:06.315Z,9.00
2018-09-13T14:37:33.921Z,9.23
2018-09-13T14:40:01.512Z,8.60
2018-09-13T14:42:29.109Z,7.80
2018-09-13T14:44:56.728Z,7.77
2018-09-13T14:47:24.381Z,8.37
2018-09-13T14:49:51.999Z,8.87
2018-09-13T14:52:19.689Z,9.97
2018-09-13T14:54:47.369Z,8.77
2018-09-13T14:57:15.135Z,8.50
2018-09-13T14:59:42.720Z,9.70
2018-09-13T15:02:10.364Z,9.40
2018-09-13T15:04:38.047Z,8.63
2018-09-13T15:07:05.847Z,9.23
2018-09-13T15:09:33.395Z,9.57
2018-09-13T15:12:01.027Z,9.30
2018-09-13T15:14:28.648Z,9.77
2018-09-13T15:16:56.257Z,9.10
2018-09-13T15:19:23.893Z,8.83
2018-09-13T15:21:51.642Z,9.53
2018-09-13T15:24:19.267Z,9.37
2018-09-13T15:26:46.907Z,9.17
2018-09-13T15:29:14.510Z,8.80
2018-09-13T15:31:42.108Z,8.90
2018-09-13T15:34:09.733Z,8.80
2018-09-13T15:36:37.363Z,8.50
2018-09-13T15:39:07.475Z,10.27
2018-09-13T15:41:35.086Z,9.57
2018-09-13T15:44:02.751Z,9.07
2018-09-13T15:46:30.356Z,8.40
2018-09-13T15:48:57.966Z,8.53
2018-09-13T15:51:25.611Z,9.30
2018-09-13T15:53:53.266Z,10.23
2018-09-13T15:56:20.978Z,9.03
2018-09-13T15:58:48.664Z,9.70
2018-09-13T16:01:16.321Z,10.03
2018-09-13T16:03:43.920Z,8.90
2018-09-13T16:06:11.521Z,9.70
2018-09-13T16:08:39.137Z,9.10
2018-09-13T16:11:06.743Z,9.73
2018-09-13T16:13:34.388Z,10.17
2018-09-13T16:16:02.001Z,10.60
2018-09-13T16:18:29.565Z,11.33
2018-09-13T16:20:57.274Z,10.63
2018-09-13T16:23:24.808Z,10.63
2018-09-13T16:25:52.438Z,10.13
2018-09-13T16:28:20.039Z,11.27
2018-09-13T16:30:47.640Z,11.70
2018-09-13T16:33:15.353Z,10.70
2018-09-13T16:35:46.593Z,10.97
2018-09-13T16:38:19.609Z,11.03
2018-09-13T16:40:52.513Z,10.83
2018-09-13T16:43:24.363Z,12.23
2018-09-13T16:45:52.035Z,10.80
2018-09-13T16:48:19.723Z,10.80
2018-09-13T16:50:47.346Z,11.50
2018-09-13T16:53:14.972Z,10.97
2018-09-13T16:55:42.611Z,11.20
2018-09-13T16:58:10.200Z,10.77
2018-09-13T17:00:37.793Z,10.27
2018-09-13T17:03:05.516Z,11.43
2018-09-13T17:05:33.165Z,11.30
2018-09-13T17:08:00.882Z,11.00
2018-09-13T17:10:28.552Z,11.70
2018-09-13T17:12:56.134Z,11.60
2018-09-13T17:15:23.844Z,11.30
2018-09-13T17:17:51.475Z,10.80
2018-09-13T17:20:19.204Z,11.53
2018-09-13T17:22:46.859Z,10.40
2018-09-13T17:25:14.504Z,11.90
2018-09-13T17:27:42.117Z,12.20
2018-09-13T17:30:09.719Z,12.50
2018-09-13T17:32:37.336Z,11.00
2018-09-13T17:35:04.980Z,12.23
2018-09-13T17:37:32.538Z,11.23
2018-09-13T17:40:00.143Z,12.53
2018-09-13T17:42:27.713Z,11.37
2018-09-13T17:44:55.354Z,12.33
2018-09-13T17:47:22.921Z,11.73
2018-09-13T17:49:50.585Z,11.63
2018-09-13T17:52:18.219Z,12.03
2018-09-13T17:54:45.828Z,10.87
2018-09-13T17:57:13.471Z,13.10
2018-09-13T17:59:41.089Z,11.87
2018-09-13T18:02:08.696Z,12.27
2018-09-13T18:04:36.337Z,12.47
2018-09-13T18:07:03.996Z,12.60
2018-09-13T18:09:33.034Z,11.57
2018-09-13T18:12:01.921Z,12.00
2018-09-13T18:14:30.319Z,11.83
2018-09-13T18:17:01.155Z,12.43
2018-09-13T18:19:28.862Z,12.50
2018-09-13T18:21:56.501Z,12.03
2018-09-13T18:24:24.141Z,12.47
2018-09-13T18:26:51.798Z,12.07
2018-09-13T18:29:19.458Z,12.07
2018-09-13T18:31:47.149Z,12.20
2018-09-13T18:34:14.782Z,13.40
2018-09-13T18:36:42.440Z,13.23
2018-09-13T18:39:11.110Z,13.03
2018-09-13T18:41:38.780Z,13.00
2018-09-13T18:44:06.461Z,14.73
2018-09-13T18:46:34.074Z,13.47
2018-09-13T18:49:01.718Z,15.10
2018-09-13T18:51:29.381Z,15.40
2018-09-13T18:53:57.069Z,15.60
2018-09-13T18:56:24.621Z,16.30
2018-09-13T18:58:52.251Z,16.97
2018-09-13T19:01:19.922Z,16.70
2018-09-13T19:03:47.519Z,16.03
2018-09-13T19:06:15.141Z,15.37
2018-09-13T19:08:42.806Z,14.67
2018-09-13T19:11:10.478Z,14.40
2018-09-13T19:13:38.080Z,15.00
2018-09-13T19:16:05.713Z,15.40
2018-09-13T19:18:33.366Z,13.50
2018-09-13T19:21:01.032Z,15.35
2018-09-13T19:23:28.651Z,14.20
2018-09-13T19:25:56.352Z,14.23
2018-09-13T19:28:23.984Z,14.90
2018-09-13T19:30:51.610Z,15.03
2018-09-13T19:33:19.233Z,14.50
2018-09-13T19:35:46.853Z,14.50
2018-09-13T19:38:14.470Z,14.60
2018-09-13T19:40:42.091Z,15.60
2018-09-13T19:43:09.817Z,13.77
2018-09-13T19:45:37.498Z,15.80
2018-09-13T19:48:06.195Z,14.40
2018-09-13T19:50:33.929Z,14.10
2018-09-13T19:53:01.513Z,14.60
2018-09-13T19:55:29.155Z,14.07
2018-09-13T19:57:57.354Z,14.90
2018-09-13T20:00:25.015Z,15.33
2018-09-13T20:02:52.678Z,14.63
2018-09-13T20:05:20.289Z,15.50
2018-09-13T20:07:47.938Z,15.50
2018-09-13T20:10:15.635Z,14.50
2018-09-13T20:12:43.276Z,14.70
2018-09-13T20:15:10.899Z,14.20
2018-09-13T20:17:38.554Z,16.10
2018-09-13T20:20:06.193Z,15.83
2018-09-13T20:22:33.918Z,17.47
2018-09-13T20:25:01.551Z,15.20
2018-09-13T20:27:29.225Z,16.70
2018-09-13T20:29:56.867Z,15.10
2018-09-13T20:32:25.937Z,15.43
2018-09-13T20:34:53.533Z,15.37
2018-09-13T20:37:21.186Z,15.47
2018-09-13T20:39:48.808Z,15.80
2018-09-13T20:42:16.500Z,14.37
2018-09-13T20:44:44.295Z,15.90
2018-09-13T20:47:12.036Z,15.00
2018-09-13T20:49:39.659Z,16.20
2018-09-13T20:52:07.302Z,13.80
2018-09-13T20:54:34.999Z,15.10
2018-09-13T20:57:02.636Z,15.60
2018-09-13T20:59:30.497Z,15.83
2018-09-13T21:01:58.116Z,16.80
2018-09-13T21:04:25.739Z,15.40
2018-09-13T21:06:53.361Z,14.50
2018-09-13T21:09:20.945Z,14.90
2018-09-13T21:11:48.551Z,15.90
2018-09-13T21:14:16.181Z,15.83
2018-09-13T21:16:43.800Z,15.83
2018-09-13T21:19:11.428Z,16.00
2018-09-13T21:21:39.013Z,14.90
2018-09-13T21:24:06.688Z,15.03
2018-09-13T21:26:34.272Z,16.40
2018-09-13T21:29:01.916Z,16.07
2018-09-13T21:31:29.622Z,14.03
2018-09-13T21:33:57.348Z,15.30
2018-09-13T21:36:24.987Z,14.23
2018-09-13T21:38:52.602Z,14.37
2018-09-13T21:41:20.245Z,16.30
2018-09-13T21:43:47.850Z,16.87
2018-09-13T21:46:15.480Z,15.60
2018-09-13T21:48:43.131Z,14.87
2018-09-13T21:51:10.760Z,14.87
2018-09-13T21:53:38.362Z,16.00
2018-09-13T21:56:06.036Z,15.07
2018-09-13T21:58:33.672Z,15.03
2018-09-13T22:01:01.277Z,14.57
2018-09-13T22:03:28.882Z,13.27
2018-09-13T22:05:56.502Z,40.20
2018-09-13T22:08:24.094Z,16.53
2018-09-13T22:10:51.790Z,17.10
2018-09-13T22:13:19.469Z,18.27
2018-09-13T22:15:47.065Z,15.67
2018-09-13T22:18:14.639Z,14.60
2018-09-13T22:20:42.231Z,14.73
2018-09-13T22:23:09.893Z,16.23
2018-09-13T22:25:37.507Z,23.17
2018-09-13T22:28:05.140Z,24.00
2018-09-13T22:30:32.741Z,24.13
2018-09-13T22:33:00.428Z,15.23
2018-09-13T22:35:28.136Z,22.57
2018-09-13T22:37:55.732Z,13.23
2018-09-13T22:40:23.349Z,15.20
2018-09-13T22:42:50.933Z,15.67
2018-09-13T22:45:18.553Z,20.30
2018-09-13T22:47:46.170Z,15.73
2018-09-13T22:50:13.799Z,16.10
2018-09-13T22:52:41.396Z,14.70
2018-09-13T22:55:08.996Z,21.60
2018-09-13T22:57:36.619Z,16.10
2018-09-13T23:00:04.716Z,12.47
2018-09-13T23:02:36.609Z,13.90
2018-09-13T23:05:04.227Z,14.43
2018-09-13T23:07:31.842Z,14.60
2018-09-13T23:09:59.434Z,13.37
2018-09-13T23:12:27.028Z,15.03
2018-09-13T23:14:54.633Z,14.83
2018-09-13T23:17:22.288Z,14.40
2018-09-13T23:19:49.848Z,17.90
2018-09-13T23:22:17.455Z,12.27
2018-09-13T23:24:45.059Z,14.70
2018-09-13T23:27:12.674Z,21.57
2018-09-13T23:29:40.304Z,14.57
2018-09-13T23:32:07.923Z,14.90
2018-09-13T23:34:35.594Z,29.80
2018-09-13T23:37:03.206Z,17.33
2018-09-13T23:39:31.055Z,14.50
2018-09-13T23:41:58.441Z,13.70
2018-09-13T23:44:26.040Z,13.77
2018-09-13T23:46:53.655Z,16.03
2018-09-13T23:49:21.282Z,20.67
2018-09-13T23:51:48.880Z,28.37
2018-09-13T23:54:16.465Z,14.50
2018-09-13T23:56:44.069Z,16.07
2018-09-13T23:59:11.674Z,15.40
